createdAt,value
2022-10-14T00:00:47.555Z,15.47
2022-10-14T00:05:49.952Z,16.70
2022-10-14T00:10:52.499Z,17.03
2022-10-14T00:15:55.184Z,16.90
2022-10-14T00:21:01.553Z,17.03
2022-10-14T00:26:05.817Z,18.90
2022-10-14T00:31:10.886Z,16.73
2022-10-14T00:36:17.217Z,17.97
2022-10-14T00:41:34.126Z,17.70
2022-10-14T00:46:45.225Z,15.43
2022-10-14T00:51:58.602Z,16.43
2022-10-14T00:57:02.156Z,17.13
2022-10-14T01:02:04.871Z,20.00
2022-10-14T01:07:12.996Z,17.63
2022-10-14T01:12:42.767Z,16.87
2022-10-14T01:18:03.787Z,17.30
2022-10-14T01:23:44.031Z,17.23
2022-10-14T01:29:14.317Z,17.33
2022-10-14T01:34:25.565Z,18.70
2022-10-14T01:39:33.177Z,17.50
2022-10-14T01:44:43.493Z,16.23
2022-10-14T01:49:59.289Z,17.77
2022-10-14T01:55:07.726Z,15.93
2022-10-14T02:00:11.614Z,17.57
2022-10-14T02:05:31.483Z,17.70
2022-10-14T02:11:02.561Z,16.73
2022-10-14T02:16:29.469Z,16.67
2022-10-14T02:21:35.136Z,18.30
2022-10-14T02:26:40.608Z,17.00
2022-10-14T02:31:44.993Z,18.57
2022-10-14T02:36:48.748Z,18.67
2022-10-14T02:41:51.205Z,17.53
2022-10-14T02:46:56.228Z,17.27
2022-10-14T02:51:58.956Z,17.40
2022-10-14T02:57:01.377Z,18.13
2022-10-14T03:02:03.895Z,16.50
2022-10-14T03:07:06.939Z,19.30
2022-10-14T03:12:14.867Z,18.33
2022-10-14T03:17:18.985Z,17.27
2022-10-14T03:22:24.001Z,18.33
2022-10-14T03:27:26.710Z,18.57
2022-10-14T03:32:36.082Z,17.67
2022-10-14T03:38:06.591Z,16.77
2022-10-14T03:43:10.527Z,18.40
2022-10-14T03:48:22.878Z,18.03
2022-10-14T03:53:25.474Z,17.57
2022-10-14T03:58:28.329Z,17.10
2022-10-14T04:03:37.604Z,17.47
2022-10-14T04:08:40.746Z,17.47
2022-10-14T04:14:01.753Z,17.77
2022-10-14T04:19:06.637Z,17.30
2022-10-14T04:24:10.076Z,30.97
2022-10-14T04:29:27.077Z,30.20
2022-10-14T04:34:37.600Z,26.27
2022-10-14T04:39:41.992Z,27.50
2022-10-14T04:44:44.875Z,25.23
2022-10-14T04:49:51.321Z,22.80
2022-10-14T04:54:56.779Z,21.70
2022-10-14T05:00:12.179Z,22.37
2022-10-14T05:05:17.504Z,22.43
2022-10-14T05:10:24.751Z,22.13
2022-10-14T05:15:27.349Z,21.23
2022-10-14T05:20:40.383Z,21.33
2022-10-14T05:25:43.302Z,20.63
2022-10-14T05:30:46.126Z,20.30
2022-10-14T05:36:03.882Z,20.30
2022-10-14T05:41:09.983Z,20.10
2022-10-14T05:46:14.389Z,20.07
2022-10-14T05:51:22.734Z,20.53
2022-10-14T05:56:29.852Z,19.10
2022-10-14T06:01:34.861Z,20.17
2022-10-14T06:06:38.339Z,19.20
2022-10-14T06:11:41.036Z,20.27
2022-10-14T06:16:43.494Z,18.60
2022-10-14T06:21:46.505Z,19.37
2022-10-14T06:26:49.053Z,19.07
2022-10-14T06:31:51.443Z,19.90
2022-10-14T06:36:56.445Z,20.43
2022-10-14T06:42:03.355Z,18.40
2022-10-14T06:47:07.990Z,18.60
2022-10-14T06:52:10.627Z,18.37
2022-10-14T06:57:13.062Z,18.40
2022-10-14T07:02:15.442Z,19.53
2022-10-14T07:07:17.997Z,19.80
2022-10-14T07:12:20.932Z,19.03
2022-10-14T07:17:24.040Z,20.23
2022-10-14T07:22:26.720Z,19.80
2022-10-14T07:27:29.119Z,18.80
2022-10-14T07:32:32.111Z,18.57
2022-10-14T07:37:34.577Z,19.77
2022-10-14T07:42:37.043Z,20.60
2022-10-14T07:47:39.558Z,20.03
2022-10-14T07:52:42.050Z,19.00
2022-10-14T07:57:44.617Z,18.23
2022-10-14T08:02:47.114Z,23.27
2022-10-14T08:07:50.201Z,23.97
2022-10-14T08:12:52.650Z,21.73
2022-10-14T08:17:55.238Z,22.17
2022-10-14T08:22:57.648Z,20.13
2022-10-14T08:28:00.183Z,23.23
2022-10-14T08:33:02.686Z,17.70
2022-10-14T08:38:05.190Z,17.90
2022-10-14T08:43:30.417Z,26.63
2022-10-14T08:48:35.311Z,16.93
2022-10-14T08:53:46.237Z,17.70
2022-10-14T08:58:54.581Z,19.27
2022-10-14T09:04:05.442Z,19.67
2022-10-14T09:09:35.538Z,16.90
2022-10-14T09:14:45.999Z,17.33
2022-10-14T09:19:54.362Z,16.93
2022-10-14T09:24:58.573Z,22.10
2022-10-14T09:30:04.831Z,16.63
2022-10-14T09:35:26.717Z,15.53
2022-10-14T09:40:44.828Z,17.20
2022-10-14T09:46:08.092Z,16.13
2022-10-14T09:51:21.485Z,15.90
2022-10-14T09:56:41.908Z,17.27
2022-10-14T10:01:57.691Z,22.57
2022-10-14T10:07:06.392Z,19.87
2022-10-14T10:12:47.230Z,25.10
2022-10-14T10:17:50.537Z,12.73
2022-10-14T10:22:52.978Z,15.23
2022-10-14T10:27:59.711Z,14.77
2022-10-14T10:33:24.971Z,14.80
2022-10-14T10:38:52.423Z,11.50
2022-10-14T10:44:22.922Z,15.83
2022-10-14T10:50:04.999Z,11.53
2022-10-14T10:55:38.263Z,10.77
2022-10-14T11:01:01.844Z,13.73
2022-10-14T11:06:37.530Z,12.20
2022-10-14T11:12:03.358Z,13.50
2022-10-14T11:17:15.173Z,10.73
2022-10-14T11:22:21.533Z,12.90
2022-10-14T11:27:44.611Z,12.30
2022-10-14T11:33:22.325Z,13.87
2022-10-14T11:38:48.405Z,14.87
2022-10-14T11:44:01.709Z,9.83
2022-10-14T11:49:09.947Z,15.50
2022-10-14T11:54:24.983Z,10.63
2022-10-14T11:59:40.515Z,9.73
2022-10-14T12:05:10.564Z,11.07
2022-10-14T12:10:22.825Z,11.57
2022-10-14T12:15:27.236Z,14.97
2022-10-14T12:20:36.507Z,12.83
2022-10-14T12:26:05.245Z,9.53
2022-10-14T12:31:35.769Z,10.17
2022-10-14T12:36:39.906Z,10.87
2022-10-14T12:42:01.563Z,14.07
2022-10-14T12:47:05.222Z,10.90
2022-10-14T12:52:08.737Z,13.90
2022-10-14T12:57:31.190Z,10.50
2022-10-14T13:02:37.145Z,10.20
2022-10-14T13:07:46.827Z,13.03
2022-10-14T13:12:49.747Z,11.17
2022-10-14T13:17:52.324Z,11.33
2022-10-14T13:23:13.151Z,11.80
2022-10-14T13:28:35.518Z,13.47
2022-10-14T13:33:46.373Z,11.77
2022-10-14T13:38:59.361Z,11.90
2022-10-14T13:44:02.636Z,11.50
2022-10-14T13:49:08.387Z,9.83
2022-10-14T13:54:22.536Z,16.70
2022-10-14T13:59:44.074Z,10.17
2022-10-14T14:04:57.166Z,11.07
2022-10-14T14:10:05.651Z,10.80
2022-10-14T14:15:17.526Z,10.97
2022-10-14T14:20:26.938Z,9.13
2022-10-14T14:25:34.542Z,10.27
2022-10-14T14:30:54.311Z,9.67
2022-10-14T14:36:00.308Z,16.53
2022-10-14T14:41:18.506Z,19.00
2022-10-14T14:46:45.386Z,19.43
2022-10-14T14:51:48.473Z,19.57
2022-10-14T14:56:56.905Z,18.97
2022-10-14T15:02:01.374Z,22.50
2022-10-14T15:07:08.687Z,25.67
2022-10-14T15:12:24.236Z,22.67
2022-10-14T15:17:37.577Z,22.97
2022-10-14T15:22:41.384Z,21.83
2022-10-14T15:27:48.457Z,20.80
2022-10-14T15:32:55.481Z,11.57
2022-10-14T15:37:57.978Z,8.73
2022-10-14T15:43:00.635Z,8.83
2022-10-14T15:48:06.824Z,9.03
2022-10-14T15:53:10.703Z,9.13
2022-10-14T15:58:13.133Z,9.03
2022-10-14T16:03:17.828Z,9.80
2022-10-14T16:08:20.627Z,9.70
2022-10-14T16:13:23.080Z,9.83
2022-10-14T16:18:26.060Z,10.07
2022-10-14T16:23:34.490Z,9.13
2022-10-14T16:28:37.031Z,9.43
2022-10-14T16:33:43.135Z,9.33
2022-10-14T16:38:49.201Z,10.10
2022-10-14T16:43:51.618Z,10.00
2022-10-14T16:48:55.141Z,10.17
2022-10-14T16:53:58.250Z,10.53
2022-10-14T16:59:01.652Z,11.00
2022-10-14T17:04:04.150Z,10.00
2022-10-14T17:09:06.755Z,12.00
2022-10-14T17:14:12.437Z,10.43
2022-10-14T17:19:15.096Z,10.77
2022-10-14T17:24:17.615Z,14.50
2022-10-14T17:29:20.607Z,10.30
2022-10-14T17:34:25.541Z,12.50
2022-10-14T17:39:29.425Z,13.17
2022-10-14T17:44:33.394Z,14.40
2022-10-14T17:49:36.902Z,13.40
2022-10-14T17:54:39.293Z,10.63
2022-10-14T17:59:41.652Z,11.13
2022-10-14T18:04:44.083Z,11.00
2022-10-14T18:09:46.479Z,11.03
2022-10-14T18:14:49.879Z,11.73
2022-10-14T18:19:52.558Z,13.10
2022-10-14T18:24:55.017Z,30.93
2022-10-14T18:29:58.102Z,31.63
2022-10-14T18:35:00.578Z,36.27
2022-10-14T18:40:03.245Z,34.70
2022-10-14T18:45:06.141Z,35.07
2022-10-14T18:50:08.745Z,37.67
2022-10-14T18:55:11.125Z,33.03
2022-10-14T19:00:14.468Z,33.57
2022-10-14T19:05:17.849Z,30.93
2022-10-14T19:10:20.172Z,29.03
2022-10-14T19:15:26.539Z,29.47
2022-10-14T19:20:31.984Z,30.43
2022-10-14T19:25:36.329Z,30.07
2022-10-14T19:30:38.635Z,32.30
2022-10-14T19:35:41.092Z,30.17
2022-10-14T19:40:43.560Z,32.33
2022-10-14T19:45:48.233Z,34.13
2022-10-14T19:50:53.184Z,35.47
2022-10-14T19:56:06.145Z,34.97
2022-10-14T20:01:15.039Z,37.00
2022-10-14T20:06:20.400Z,34.17
2022-10-14T20:11:24.617Z,56.50
2022-10-14T20:16:27.354Z,44.90
2022-10-14T20:21:31.017Z,39.47
2022-10-14T20:26:33.525Z,38.13
2022-10-14T20:31:35.992Z,36.80
2022-10-14T20:36:38.424Z,32.73
2022-10-14T20:41:40.734Z,35.77
2022-10-14T20:46:43.406Z,39.83
2022-10-14T20:51:45.803Z,42.40
2022-10-14T20:56:49.471Z,41.47
2022-10-14T21:01:51.942Z,40.60
2022-10-14T21:06:54.303Z,41.00
2022-10-14T21:11:56.906Z,44.57
2022-10-14T21:16:59.478Z,45.77
2022-10-14T21:22:03.998Z,44.90
2022-10-14T21:27:06.608Z,45.97
2022-10-14T21:32:09.099Z,49.10
2022-10-14T21:37:12.156Z,50.37
2022-10-14T21:42:14.602Z,50.53
2022-10-14T21:47:17.056Z,53.87
2022-10-14T21:52:19.808Z,53.07
2022-10-14T21:57:22.602Z,51.03
2022-10-14T22:02:25.095Z,52.30
2022-10-14T22:07:27.572Z,53.87
2022-10-14T22:12:30.428Z,54.87
2022-10-14T22:17:33.070Z,53.17
2022-10-14T22:22:35.508Z,54.37
2022-10-14T22:27:37.946Z,53.40
2022-10-14T22:32:40.323Z,51.57
2022-10-14T22:37:42.877Z,52.30
2022-10-14T22:42:49.073Z,52.47
2022-10-14T22:47:53.861Z,50.93
2022-10-14T22:52:56.221Z,53.50
2022-10-14T22:57:58.674Z,50.37
2022-10-14T23:03:01.131Z,53.27
2022-10-14T23:08:04.229Z,53.10
2022-10-14T23:13:07.126Z,51.10
2022-10-14T23:18:09.515Z,49.77
2022-10-14T23:23:11.914Z,49.20
2022-10-14T23:28:14.903Z,50.03
2022-10-14T23:33:17.721Z,47.23
2022-10-14T23:38:20.287Z,45.97
2022-10-14T23:43:22.776Z,46.97
2022-10-14T23:48:25.691Z,46.50
2022-10-14T23:53:28.606Z,46.80
2022-10-14T23:58:31.436Z,43.40
